DW9106 Madrid ES current weather conditions

sailwx.info

Wind from 053 at 3 knots gusting 7

Air temperature 18.3° C
Dewpoint 3.4° C

Last reported at 2016-May-04 08:43 UTC.
Time now 2016-May-04 09:52 UTC

Location: N 40°23' W 003°38'.
View on Google Maps.

See reports from other nearby stations

  
Tides and Currents Weather Stations Pressure Air Temp Water Temp Dewpoint Dewpoint Depression Visibility Wind Speed Wind Dir Waves Ship Positions
date/time (UTC)wind fromknots sea level pressurealtimeterstation pressurevisibilityair tempwater tempwave heightnotes
2016-May-04 08:43 053 3 gusting 7 18.3
2016-May-04 08:28 038 2 gusting 6 17.8
2016-May-04 08:13 072 2 gusting 6 17.8
2016-May-04 07:58 045 1 gusting 6 16.7
2016-May-04 07:43 026 2 gusting 5 16.7
2016-May-04 07:28 049 2 gusting 6 16.1
2016-May-04 07:13 053 0 gusting 6 15.0
2016-May-04 06:58 044 3 gusting 5 14.4
2016-May-04 06:43 059 2 gusting 6 14.4
2016-May-04 06:28 063 13.9
2016-May-04 06:13 083 0 gusting 6 13.3
2016-May-04 05:58 065 1 gusting 4 12.8
2016-May-04 05:43 044 1 gusting 4 12.2
2016-May-04 05:28 053 0 gusting 4 12.2
2016-May-04 05:13 055 2 gusting 6 12.2
2016-May-04 04:58 061 2 gusting 5 12.2
2016-May-04 04:43 043 2 gusting 5 12.2
2016-May-04 04:28 057 1 gusting 6 12.2
2016-May-04 04:12 040 1 gusting 5 12.2
2016-May-04 03:57 060 1 gusting 4 12.8
2016-May-04 03:42 042 0 gusting 4 12.8
2016-May-04 03:27 056 1 gusting 5 13.3
2016-May-04 03:12 061 1 gusting 4 13.3
2016-May-04 02:57 055 2 gusting 6 13.9
2016-May-04 02:42 042 2 gusting 5 13.9
2016-May-04 02:27 055 13.9
2016-May-04 02:12 047 14.4
2016-May-04 01:57 053 1 gusting 4 13.9
2016-May-04 01:42 071 13.9
2016-May-04 01:27 058 0 gusting 5 14.4
2016-May-04 01:12 046 1 gusting 8 14.4
2016-May-04 00:57 047 2 gusting 8 14.4
2016-May-04 00:42 051 3 gusting 9 15.0
2016-May-04 00:27 040 2 gusting 6 16.1
2016-May-04 00:12 051 2 gusting 6 16.1
2016-May-03 23:57 053 1 gusting 5 16.1
2016-May-03 23:42 076 1 gusting 3 16.1
2016-May-03 23:29 037 16.1
2016-May-03 23:12 036 16.7
2016-May-03 22:57 040 17.8
2016-May-03 22:42 053 0 gusting 3 17.8
2016-May-03 22:27 031 17.8
2016-May-03 22:12 355 18.3
2016-May-03 21:57 329 18.9
2016-May-03 21:42 329 19.4
2016-May-03 21:27 319 0 gusting 1 20.0
2016-May-03 21:12 290 20.0
2016-May-03 20:57 290 20.0
2016-May-03 20:42 289 20.6
2016-May-03 20:27 063 20.6
2016-May-03 20:12 063 21.1
2016-May-03 19:57 063 21.7
2016-May-03 19:42 063 22.2
2016-May-03 19:27 063 22.8
2016-May-03 19:14 063 23.9
2016-May-03 18:56 063 24.4
2016-May-03 18:41 076 24.4
2016-May-03 18:26 076 0 gusting 2 25.0
2016-May-03 18:11 076 25.0
2016-May-03 17:56 073 2 gusting 4 25.0
2016-May-03 17:44 091 2 gusting 6 25.0
2016-May-03 17:26 052 0 gusting 5 25.6
2016-May-03 17:11 094 3 gusting 6 25.6
2016-May-03 16:56 038 1 gusting 6 26.1
2016-May-03 16:41 080 1 gusting 6 26.1
2016-May-03 16:26 052 2 gusting 6 26.1
2016-May-03 16:11 087 1 gusting 6 26.1
2016-May-03 15:56 073 0 gusting 7 26.1
2016-May-03 15:43 055 2 gusting 8 25.6
2016-May-03 15:26 081 0 gusting 6 25.6
2016-May-03 15:11 032 6 gusting 10 25.6
2016-May-03 14:56 079 3 gusting 6 25.6
2016-May-03 14:41 059 0 gusting 6 26.1
2016-May-03 14:26 034 25.0
2016-May-03 14:11 057 4 gusting 8 25.6
2016-May-03 13:56 075 1 gusting 8 25.0
2016-May-03 13:41 054 1 gusting 6 25.0
2016-May-03 13:26 180 26.1
2016-May-03 13:11 253 0 gusting 5 24.4
2016-May-03 12:56 014 5 gusting 9 23.9
2016-May-03 12:41 056 3 gusting 6 24.4
2016-May-03 12:26 076 3 gusting 6 23.9
2016-May-03 12:13 061 1 gusting 6 23.3
2016-May-03 11:56 067 3 gusting 7 23.3
2016-May-03 11:41 038 0 gusting 6 22.2
2016-May-03 11:26 060 2 gusting 9 22.2
2016-May-03 11:10 051 5 gusting 7 21.7
2016-May-03 10:55 036 5 gusting 9 21.1
2016-May-03 10:41 061 1 gusting 7 21.1
2016-May-03 10:25 023 3 gusting 8 20.6
2016-May-03 10:10 052 4 gusting 7 20.0
2016-May-03 09:55 034 5 gusting 11 19.4
2016-May-03 09:40 090 4 gusting 8 18.9
2016-May-03 09:25 059 4 gusting 7 17.8
2016-May-03 09:10 096 5 gusting 9 17.2
2016-May-03 08:55 042 5 gusting 7 17.2
2016-May-03 08:40 080 3 gusting 12 16.7
2016-May-03 08:25 042 3 gusting 8 15.6
2016-May-03 08:10 040 5 gusting 10 15.0
2016-May-03 07:55 030 4 gusting 8 13.9
2016-May-03 07:39 038 4 gusting 8 13.3
2016-May-03 07:24 039 2 gusting 7 12.8
2016-May-03 07:09 083 2 gusting 7 12.8
2016-May-03 06:54 050 4 gusting 6 12.2
2016-May-03 06:39 043 2 gusting 7 11.7
2016-May-03 06:24 079 2 gusting 9 11.1
2016-May-03 06:09 026 5 gusting 8 11.1
2016-May-03 05:54 039 4 gusting 9 11.1
2016-May-03 05:39 033 2 gusting 9 11.1
2016-May-03 05:24 051 3 gusting 7 11.1
2016-May-03 05:09 042 3 gusting 6 11.1
2016-May-03 04:54 019 4 gusting 7 11.1
2016-May-03 04:39 053 4 gusting 7 11.7
2016-May-03 04:24 032 3 gusting 6 11.7
2016-May-03 04:09 046 3 gusting 6 11.7
2016-May-03 03:56 041 3 gusting 8 11.7
2016-May-03 03:39 051 2 gusting 6 12.2
2016-May-03 03:24 053 3 gusting 6 12.2
2016-May-03 03:09 056 4 gusting 10 12.2
2016-May-03 02:54 046 3 gusting 7 12.8
2016-May-03 02:39 076 1 gusting 7 12.8
2016-May-03 02:23 050 4 gusting 7 13.3
2016-May-03 02:08 052 4 gusting 12 13.3
2016-May-03 01:53 044 4 gusting 10 13.3
2016-May-03 01:38 049 4 gusting 11 13.9
2016-May-03 01:23 360 3 gusting 8 13.9
2016-May-03 01:08 005 3 gusting 7 13.9
2016-May-03 00:53 042 3 gusting 7 14.4
2016-May-03 00:38 038 3 gusting 8 15.0
2016-May-03 00:23 067 4 gusting 10 15.6
2016-May-03 00:08 058 6 gusting 11 16.1
2016-May-02 23:53 053 4 gusting 9 16.1
2016-May-02 23:38 035 3 gusting 6 15.6
2016-May-02 23:25 040 4 gusting 9 16.1
2016-May-02 23:08 044 5 gusting 10 16.1
2016-May-02 22:53 039 2 gusting 9 16.7
2016-May-02 22:38 046 4 gusting 7 17.2
2016-May-02 22:25 078 3 gusting 7 17.2
2016-May-02 22:08 066 1 gusting 9 17.8
2016-May-02 21:53 049 2 gusting 6 17.8
2016-May-02 21:38 047 2 gusting 6 17.8
2016-May-02 21:23 063 2 gusting 6 18.3
2016-May-02 21:08 033 2 gusting 5 18.3
2016-May-02 20:53 046 0 gusting 3 18.3
2016-May-02 20:38 044 18.3
2016-May-02 20:23 044 18.3
2016-May-02 20:08 044 18.9
2016-May-02 19:53 044 19.4
2016-May-02 19:38 044 20.0
2016-May-02 19:23 044 21.1
2016-May-02 19:08 044 21.1
2016-May-02 18:53 061 0 gusting 3 21.7
2016-May-02 18:38 037 1 gusting 5 22.2
2016-May-02 18:23 053 2 gusting 4 22.2
2016-May-02 18:08 071 2 gusting 6 22.8
2016-May-02 17:53 040 1 gusting 4 22.8
2016-May-02 17:37 051 0 gusting 6 22.8
2016-May-02 17:22 065 3 gusting 7 22.8
2016-May-02 17:07 069 2 gusting 7 22.8
2016-May-02 16:52 063 0 gusting 6 23.3
2016-May-02 16:37 082 3 gusting 6 23.3
2016-May-02 16:22 051 2 gusting 6 23.3
2016-May-02 16:07 054 6 gusting 9 23.3
2016-May-02 15:52 141 1 gusting 6 22.8
2016-May-02 15:37 086 22.8
2016-May-02 15:22 056 3 gusting 7 22.8
2016-May-02 15:07 089 3 gusting 9 22.2
2016-May-02 14:52 037 3 gusting 8 21.7
2016-May-02 14:37 078 2 gusting 8 22.2
2016-May-02 14:22 030 4 gusting 7 21.7
2016-May-02 14:07 040 3 gusting 6 21.7
2016-May-02 13:52 067 4 gusting 8 21.1
2016-May-02 13:37 076 5 gusting 8 21.1
2016-May-02 13:22 109 1 gusting 7 20.6
2016-May-02 13:07 071 5 gusting 8 20.0
2016-May-02 12:52 088 4 gusting 8 19.4
2016-May-02 12:39 023 3 gusting 6 18.9
2016-May-02 12:22 049 1 gusting 7 18.3
2016-May-02 12:07 100 5 gusting 12 17.8
2016-May-02 11:52 067 5 gusting 8 17.8
2016-May-02 11:37 077 2 gusting 9 16.7
2016-May-02 11:22 033 5 gusting 6 16.1
2016-May-02 11:07 034 3 gusting 8 15.6
2016-May-02 10:51 086 3 gusting 6 15.6
2016-May-02 10:36 083 4 gusting 7 15.6
2016-May-02 10:21 044 0 gusting 6 15.0
2016-May-02 10:06 115 0 gusting 6 14.4
2016-May-02 09:51 071 2 gusting 4 14.4
2016-May-02 09:36 069 0 gusting 5 13.9
2016-May-02 09:21 113 0 gusting 2 13.9
2016-May-02 09:06 249 0 gusting 3 12.2